Time;durP1;ratioP1;P1;durP2;ratioP2;P2;SDS_P1;SDS_P2;PMS_P1;PMS_P2;Temp;Humidity;BMP_temperature;BMP_pressure;BME280_temperature;BME280_humidity;BME280_pressure;Samples;Min_cycle;Max_cycle;Signal;HPM_P1;HPM_P2
2022/07/14 00:00:54;;;;;;;4.88;1.58;;;24.80;89.80;;;;;;5010203;28;20045;-68
2022/07/14 00:03:22;;;;;;;5.00;1.63;;;24.80;89.80;;;;;;5026435;28;20570;-71
2022/07/14 00:05:49;;;;;;;3.83;1.70;;;24.80;89.80;;;;;;5010913;28;20041;-69
2022/07/14 00:08:18;;;;;;;5.00;1.95;;;24.80;90.00;;;;;;5010411;28;20046;-68
2022/07/14 00:10:46;;;;;;;4.70;1.48;;;24.70;90.00;;;;;;5018914;28;20060;-68
2022/07/14 00:13:14;;;;;;;3.65;1.55;;;24.70;90.10;;;;;;5045854;28;20045;-68
2022/07/14 00:15:41;;;;;;;8.45;2.20;;;24.70;90.20;;;;;;5013384;28;20095;-69
2022/07/14 00:18:09;;;;;;;5.05;1.70;;;24.60;90.20;;;;;;5029393;28;20064;-69
2022/07/14 00:20:37;;;;;;;4.85;2.13;;;24.60;90.10;;;;;;5029444;28;20050;-69
2022/07/14 00:23:05;;;;;;;6.10;2.13;;;24.60;90.20;;;;;;5012591;28;20056;-67
2022/07/14 00:25:32;;;;;;;4.75;1.80;;;24.60;90.20;;;;;;5045738;28;20045;-68
2022/07/14 00:28:00;;;;;;;4.35;1.50;;;24.50;90.20;;;;;;5013251;28;20052;-69
2022/07/14 00:30:28;;;;;;;7.45;1.90;;;24.50;90.50;;;;;;5012306;28;20049;-70
2022/07/14 00:32:55;;;;;;;3.53;1.73;;;24.50;90.20;;;;;;5012484;28;20042;-69
2022/07/14 00:35:23;;;;;;;4.30;1.88;;;24.40;90.20;;;;;;5013111;28;20047;-68
2022/07/14 00:37:51;;;;;;;6.07;1.95;;;24.40;90.20;;;;;;5029383;28;20048;-69
2022/07/14 00:40:18;;;;;;;4.20;1.90;;;24.40;90.10;;;;;;5013197;28;20049;-68
2022/07/14 00:42:50;;;;;;;4.43;1.92;;;24.40;90.20;;;;;;5045636;28;20041;-67
2022/07/14 00:45:20;;;;;;;6.25;2.60;;;24.40;90.20;;;;;;5045775;28;20442;-67
2022/07/14 00:47:48;;;;;;;3.47;2.15;;;24.30;90.10;;;;;;5012822;28;20107;-69
2022/07/14 00:50:18;;;;;;;2.70;1.80;;;24.30;90.20;;;;;;5028345;28;20098;-68
2022/07/14 00:52:48;;;;;;;6.07;1.80;;;24.30;90.20;;;;;;5029393;28;20121;-68
2022/07/14 00:55:17;;;;;;;6.65;2.63;;;24.20;90.20;;;;;;5029280;28;20542;-68
2022/07/14 00:57:46;;;;;;;4.90;2.00;;;24.20;90.30;;;;;;5012718;28;20057;-68
2022/07/14 01:00:16;;;;;;;4.18;1.88;;;24.10;90.30;;;;;;5029141;28;20049;-69
2022/07/14 01:02:45;;;;;;;2.47;1.65;;;24.10;90.40;;;;;;5018289;28;20136;-68
2022/07/14 01:05:13;;;;;;;10.77;3.15;;;24.00;90.40;;;;;;4993455;28;20061;-71
2022/07/14 01:07:41;;;;;;;3.70;1.65;;;24.00;90.50;;;;;;4993340;28;20124;-68
2022/07/14 01:10:09;;;;;;;5.57;2.95;;;24.00;90.50;;;;;;5025122;28;20141;-67
2022/07/14 01:12:38;;;;;;;5.18;2.88;;;23.90;90.60;;;;;;5010465;28;20041;-72
2022/07/14 01:15:07;;;;;;;5.55;2.30;;;23.80;90.60;;;;;;5009295;28;20050;-68
2022/07/14 01:17:34;;;;;;;5.28;2.00;;;23.80;90.60;;;;;;5009250;28;20046;-69
2022/07/14 01:20:02;;;;;;;4.38;2.20;;;23.80;90.70;;;;;;5011082;28;20049;-68
2022/07/14 01:22:30;;;;;;;7.03;2.20;;;23.80;90.70;;;;;;5012994;28;20056;-68
2022/07/14 01:24:58;;;;;;;10.15;1.75;;;23.80;90.70;;;;;;5012907;28;20128;-68
2022/07/14 01:27:27;;;;;;;4.30;2.50;;;23.80;90.70;;;;;;4997171;28;20056;-68
2022/07/14 01:29:55;;;;;;;6.28;2.53;;;23.80;90.70;;;;;;4995963;28;20454;-67
2022/07/14 01:32:22;;;;;;;5.00;2.20;;;23.80;90.70;;;;;;5012457;28;20865;-68
2022/07/14 01:34:50;;;;;;;7.15;1.92;;;23.80;90.80;;;;;;4995609;28;20057;-68
2022/07/14 01:37:19;;;;;;;4.80;2.22;;;23.70;90.80;;;;;;5011869;28;20514;-67
2022/07/14 01:39:47;;;;;;;4.82;2.60;;;23.70;90.90;;;;;;5012121;28;20057;-67
2022/07/14 01:42:14;;;;;;;4.95;1.88;;;23.70;90.90;;;;;;5012974;28;20041;-72
2022/07/14 01:44:43;;;;;;;3.75;1.60;;;23.70;90.90;;;;;;4996168;28;20100;-68
2022/07/14 01:47:11;;;;;;;4.88;2.03;;;23.70;91.00;;;;;;4996920;28;20092;-67
2022/07/14 01:49:39;;;;;;;8.57;2.38;;;23.60;91.00;;;;;;5012518;28;20053;-71
2022/07/14 01:52:09;;;;;;;4.75;2.00;;;23.60;91.10;;;;;;5012142;28;20065;-71
2022/07/14 01:54:38;;;;;;;5.10;2.10;;;23.60;91.10;;;;;;5002479;28;20553;-69
2022/07/14 01:57:08;;;;;;;3.78;2.30;;;23.60;91.10;;;;;;5012329;28;20120;-67
2022/07/14 01:59:36;;;;;;;6.75;1.80;;;23.60;91.20;;;;;;5012521;28;20038;-68
2022/07/14 02:02:04;;;;;;;3.90;1.70;;;23.50;91.30;;;;;;5013286;28;20042;-77
2022/07/14 02:04:32;;;;;;;7.20;2.00;;;23.50;91.30;;;;;;5011829;28;20046;-71
2022/07/14 02:06:59;;;;;;;4.32;2.17;;;23.50;91.30;;;;;;5012503;28;20396;-70
2022/07/14 02:12:49;;;;;;;4.93;2.78;;;23.50;91.40;;;;;;4995425;28;20440;-67
2022/07/14 02:15:17;;;;;;;5.35;1.83;;;23.50;91.50;;;;;;4993821;28;20446;-69
2022/07/14 02:17:48;;;;;;;3.78;2.03;;;23.50;91.50;;;;;;4996008;28;20057;-68
2022/07/14 02:20:18;;;;;;;6.10;2.67;;;23.50;91.60;;;;;;4996315;28;20054;-68
2022/07/14 02:22:47;;;;;;;4.90;2.30;;;23.60;91.60;;;;;;4995318;28;20065;-69
2022/07/14 02:25:15;;;;;;;4.15;2.22;;;23.60;91.60;;;;;;5011854;28;20038;-68
2022/07/14 02:27:43;;;;;;;6.07;2.38;;;23.60;91.60;;;;;;4994841;28;20056;-70
2022/07/14 02:30:10;;;;;;;4.55;2.05;;;23.60;91.60;;;;;;5012043;28;20114;-67
2022/07/14 02:32:38;;;;;;;3.60;2.40;;;23.60;91.60;;;;;;4995879;28;20381;-70
2022/07/14 02:35:06;;;;;;;9.57;2.17;;;23.60;91.70;;;;;;5028116;28;20053;-68
2022/07/14 02:37:35;;;;;;;7.72;2.60;;;23.60;91.80;;;;;;4979479;28;20046;-67
2022/07/14 02:40:05;;;;;;;4.40;1.73;;;23.60;91.90;;;;;;5016452;28;20411;-69
2022/07/14 02:42:33;;;;;;;8.32;2.75;;;23.60;92.00;;;;;;5011184;28;20108;-69
2022/07/14 02:45:00;;;;;;;7.82;2.42;;;23.60;92.00;;;;;;5011337;28;20045;-69
2022/07/14 02:47:28;;;;;;;7.85;2.60;;;23.70;92.10;;;;;;5011591;28;20050;-68
2022/07/14 02:49:55;;;;;;;9.02;2.10;;;23.70;92.20;;;;;;5027991;28;20038;-67
2022/07/14 02:52:23;;;;;;;8.88;2.47;;;23.70;92.20;;;;;;4995641;28;20141;-68
2022/07/14 02:54:53;;;;;;;5.82;2.63;;;23.70;92.30;;;;;;5011079;28;20065;-67
2022/07/14 02:57:24;;;;;;;5.13;2.58;;;23.80;92.30;;;;;;5011353;28;20061;-68
2022/07/14 02:59:53;;;;;;;5.28;2.95;;;23.80;92.40;;;;;;5011069;28;20050;-68
2022/07/14 03:02:21;;;;;;;8.70;3.03;;;23.80;92.70;;;;;;5012554;28;20088;-70
2022/07/14 03:04:49;;;;;;;7.55;2.58;;;23.80;92.60;;;;;;5011132;28;20049;-67
2022/07/14 03:07:16;;;;;;;7.45;2.58;;;23.80;92.70;;;;;;5012203;28;20069;-68
2022/07/14 03:09:44;;;;;;;3.75;2.28;;;23.80;92.80;;;;;;5011074;28;20447;-68
2022/07/14 03:12:12;;;;;;;4.25;2.28;;;23.80;92.90;;;;;;5011243;28;20053;-68
2022/07/14 03:14:42;;;;;;;4.78;2.20;;;23.80;93.20;;;;;;4994813;28;20049;-69
2022/07/14 03:17:10;;;;;;;10.13;3.15;;;23.80;93.30;;;;;;4995025;28;20050;-67
2022/07/14 03:19:38;;;;;;;8.40;2.17;;;23.80;93.20;;;;;;4994405;28;20054;-68
2022/07/14 03:22:06;;;;;;;12.93;3.40;;;23.80;93.40;;;;;;4993906;28;20081;-72
2022/07/14 03:24:36;;;;;;;4.25;2.10;;;23.80;93.60;;;;;;5010687;28;20096;-68
2022/07/14 03:27:04;;;;;;;8.43;3.13;;;23.80;93.70;;;;;;5010897;28;20042;-71
2022/07/14 03:29:32;;;;;;;11.48;2.63;;;23.80;93.70;;;;;;4996747;28;20046;-67
2022/07/14 03:31:59;;;;;;;6.55;2.42;;;23.80;93.70;;;;;;5010572;28;20100;-68
2022/07/14 03:34:31;;;;;;;10.65;2.88;;;23.80;93.70;;;;;;5010745;28;20044;-67
2022/07/14 03:37:00;;;;;;;5.70;3.28;;;23.80;93.80;;;;;;4994204;28;20377;-70
2022/07/14 03:39:36;;;;;;;4.47;1.92;;;23.70;93.80;;;;;;5010045;28;20135;-68
2022/07/14 03:42:05;;;;;;;4.80;2.78;;;23.70;94.00;;;;;;4992434;28;20080;-68
2022/07/14 03:44:33;;;;;;;7.47;2.40;;;23.80;94.20;;;;;;4994442;28;20042;-69
2022/07/14 03:47:01;;;;;;;5.88;3.10;;;23.70;94.30;;;;;;4978110;28;20079;-68
2022/07/14 03:49:29;;;;;;;6.50;2.60;;;23.70;94.50;;;;;;5009833;28;20052;-68
2022/07/14 03:51:59;;;;;;;7.20;2.38;;;23.80;94.70;;;;;;5010096;28;20042;-67
2022/07/14 03:54:28;;;;;;;13.18;3.03;;;23.80;94.90;;;;;;4991937;28;20490;-70
2022/07/14 03:56:55;;;;;;;7.15;2.20;;;23.80;95.00;;;;;;5009756;28;20818;-68
2022/07/14 03:59:24;;;;;;;7.03;1.80;;;23.90;95.10;;;;;;4977841;28;20057;-70
2022/07/14 04:01:51;;;;;;;5.50;2.20;;;23.90;95.10;;;;;;4993590;28;20045;-67
2022/07/14 04:04:19;;;;;;;8.63;2.20;;;24.00;95.20;;;;;;5009977;28;20041;-67
2022/07/14 04:06:48;;;;;;;12.82;2.95;;;24.00;95.30;;;;;;5009863;28;20045;-70
2022/07/14 04:09:16;;;;;;;4.18;1.55;;;24.10;95.40;;;;;;5009907;28;20088;-68
2022/07/14 04:11:50;;;;;;;4.70;2.00;;;24.20;95.70;;;;;;5009996;28;20034;-69
2022/07/14 04:14:19;;;;;;;3.88;1.70;;;24.20;95.70;;;;;;4993211;28;20054;-68
2022/07/14 04:16:47;;;;;;;4.88;2.55;;;24.40;95.40;;;;;;5014594;28;20034;-68
2022/07/14 04:19:17;;;;;;;4.25;2.03;;;24.40;95.40;;;;;;5029757;28;20045;-68
2022/07/14 04:21:45;;;;;;;3.78;2.17;;;24.50;95.40;;;;;;5029008;28;20069;-70
2022/07/14 04:24:13;;;;;;;3.50;2.10;;;24.60;95.40;;;;;;5012884;28;20053;-68
2022/07/14 04:26:42;;;;;;;4.43;2.17;;;24.70;95.30;;;;;;5028661;28;20052;-70
2022/07/14 04:29:10;;;;;;;4.65;2.35;;;24.80;95.30;;;;;;5012480;28;20087;-68
2022/07/14 04:31:38;;;;;;;5.15;2.58;;;24.90;95.20;;;;;;5045139;28;20543;-69
2022/07/14 04:34:10;;;;;;;4.82;2.55;;;25.00;95.10;;;;;;5011826;28;20050;-69
2022/07/14 04:36:37;;;;;;;6.30;2.20;;;25.20;95.00;;;;;;5012082;28;20057;-68
2022/07/14 04:39:08;;;;;;;3.00;2.00;;;25.30;94.80;;;;;;5012909;28;20072;-73
2022/07/14 04:41:39;;;;;;;6.90;1.80;;;25.40;94.70;;;;;;5012101;28;20049;-70
2022/07/14 04:44:06;;;;;;;9.13;2.40;;;25.50;94.60;;;;;;5044745;28;20103;-69
2022/07/14 04:46:35;;;;;;;7.13;2.20;;;25.70;94.50;;;;;;5013142;28;20049;-68
2022/07/14 04:52:03;;;;;;;;;;;25.90;94.20;;;;;;5027254;28;20049;-68
2022/07/14 04:54:57;;;;;;;5.50;2.47;;;26.10;94.10;;;;;;5043492;28;20105;-72
2022/07/14 04:57:30;;;;;;;4.50;2.10;;;26.20;94.00;;;;;;5032878;28;20171;-68
2022/07/14 05:00:00;;;;;;;11.75;3.33;;;26.30;93.90;;;;;;5032884;28;20052;-67
2022/07/14 05:02:28;;;;;;;4.22;2.05;;;26.30;93.80;;;;;;5049473;28;20044;-70
2022/07/14 05:04:56;;;;;;;7.18;2.65;;;26.50;93.80;;;;;;5000361;28;20053;-68
2022/07/14 05:07:24;;;;;;;4.57;2.10;;;26.60;93.70;;;;;;5030954;28;20132;-67
2022/07/14 05:09:55;;;;;;;5.25;3.28;;;26.70;93.70;;;;;;5033253;28;20128;-68
2022/07/14 05:12:24;;;;;;;6.25;1.77;;;26.70;93.70;;;;;;5031981;28;20148;-68
2022/07/14 05:14:54;;;;;;;7.03;2.88;;;26.80;93.70;;;;;;5032682;28;20037;-68
2022/07/14 05:17:21;;;;;;;9.45;3.00;;;26.90;93.60;;;;;;5032693;28;20116;-69
2022/07/14 05:20:00;;;;;;;7.82;2.00;;;27.00;93.60;;;;;;5032229;28;20042;-67
2022/07/14 05:22:43;;;;;;;13.50;2.92;;;27.10;93.40;;;;;;5049147;28;20049;-67
2022/07/14 05:25:14;;;;;;;4.85;2.67;;;27.20;93.20;;;;;;5016170;28;20407;-70
2022/07/14 05:27:44;;;;;;;7.75;2.03;;;27.40;93.30;;;;;;5032413;28;20047;-68
2022/07/14 05:30:35;;;;;;;14.45;3.20;;;27.50;93.00;;;;;;5032627;28;20057;-70
2022/07/14 05:33:03;;;;;;;11.98;2.58;;;27.60;92.70;;;;;;5048963;28;20041;-67
2022/07/14 05:35:32;;;;;;;6.72;2.53;;;27.70;92.20;;;;;;5031906;28;20124;-68
2022/07/14 05:38:01;;;;;;;9.27;2.42;;;27.80;91.80;;;;;;5032239;28;20041;-68
2022/07/14 05:40:32;;;;;;;6.00;2.40;;;27.90;91.50;;;;;;5032000;28;20083;-67
2022/07/14 05:43:01;;;;;;;4.57;2.15;;;27.90;91.00;;;;;;5032181;28;20083;-68
2022/07/14 05:45:29;;;;;;;3.38;1.92;;;28.00;90.50;;;;;;5032279;28;20045;-67
2022/07/14 05:47:58;;;;;;;5.20;1.77;;;28.10;90.00;;;;;;5015844;28;20064;-68
2022/07/14 05:50:27;;;;;;;7.50;2.55;;;28.20;88.80;;;;;;5048133;28;20041;-69
2022/07/14 05:52:55;;;;;;;4.50;2.60;;;28.30;88.60;;;;;;5032046;28;20041;-70
2022/07/14 05:55:24;;;;;;;7.20;2.50;;;28.40;88.50;;;;;;4998882;28;20096;-67
2022/07/14 05:57:53;;;;;;;6.78;1.92;;;28.50;87.60;;;;;;5032196;28;20504;-68
2022/07/14 06:00:21;;;;;;;7.75;2.20;;;28.60;87.20;;;;;;5031573;28;20103;-69
2022/07/14 06:02:50;;;;;;;5.07;2.25;;;28.70;87.10;;;;;;5048382;28;20095;-68
2022/07/14 06:05:22;;;;;;;4.90;2.42;;;28.80;87.40;;;;;;5031253;28;20045;-68
2022/07/14 06:07:50;;;;;;;4.90;1.98;;;28.80;88.10;;;;;;5029364;28;20060;-68
2022/07/14 06:10:18;;;;;;;6.65;2.92;;;28.90;88.40;;;;;;5032038;28;20050;-71
2022/07/14 06:12:49;;;;;;;5.05;2.17;;;29.00;88.90;;;;;;5015523;28;20057;-69
2022/07/14 06:15:17;;;;;;;5.70;2.67;;;29.00;89.20;;;;;;5014952;28;20132;-67
2022/07/14 06:17:45;;;;;;;7.55;2.13;;;29.20;89.50;;;;;;5031652;28;20052;-67
2022/07/14 06:20:13;;;;;;;5.80;2.20;;;29.10;89.80;;;;;;5014994;28;20069;-68
2022/07/14 06:22:43;;;;;;;5.10;2.35;;;29.20;89.80;;;;;;5014636;28;20065;-69
2022/07/14 06:25:11;;;;;;;6.53;2.13;;;29.30;89.90;;;;;;5015467;28;20156;-67
2022/07/14 06:27:39;;;;;;;5.88;2.53;;;29.40;89.20;;;;;;5014893;28;20103;-67
2022/07/14 06:30:09;;;;;;;11.27;2.05;;;29.50;88.70;;;;;;5047161;28;20080;-68
2022/07/14 06:32:40;;;;;;;3.90;1.50;;;29.60;87.50;;;;;;5031231;28;20179;-70
2022/07/14 06:35:12;;;;;;;8.00;2.97;;;29.70;87.30;;;;;;5031688;28;20044;-69
2022/07/14 06:37:41;;;;;;;5.05;1.75;;;29.80;86.80;;;;;;5031454;28;20455;-68
2022/07/14 06:40:09;;;;;;;4.43;2.40;;;29.80;87.20;;;;;;5047668;28;20073;-70
2022/07/14 06:42:42;;;;;;;6.85;2.55;;;29.90;87.70;;;;;;5031077;28;20037;-68
2022/07/14 06:45:45;;;;;;;6.18;2.20;;;30.00;87.50;;;;;;4993303;28;20133;-67
2022/07/14 06:48:17;;;;;;;7.57;2.20;;;30.00;86.50;;;;;;4998211;28;20053;-69
2022/07/14 06:50:46;;;;;;;5.68;2.17;;;30.10;86.60;;;;;;5014028;28;20049;-68
2022/07/14 06:53:15;;;;;;;7.82;2.88;;;30.10;86.10;;;;;;5047194;28;20064;-70
2022/07/14 06:55:43;;;;;;;3.97;2.15;;;30.20;86.70;;;;;;5030675;28;20045;-68
2022/07/14 06:58:10;;;;;;;2.90;1.77;;;30.40;86.60;;;;;;5014116;28;20057;-70
2022/07/14 07:00:39;;;;;;;8.88;2.00;;;30.40;85.60;;;;;;5031770;28;20125;-67
2022/07/14 07:03:11;;;;;;;5.97;2.10;;;30.50;84.80;;;;;;5030545;28;20054;-68
2022/07/14 07:08:28;;;;;;;5.80;1.95;;;30.60;85.00;;;;;;5011639;28;20037;-71
2022/07/14 07:10:57;;;;;;;5.60;2.65;;;30.70;84.20;;;;;;4978768;28;20064;-67
2022/07/14 07:13:29;;;;;;;5.72;1.73;;;30.70;82.10;;;;;;5011408;28;20148;-68
2022/07/14 07:15:57;;;;;;;3.03;1.77;;;30.70;81.10;;;;;;5011948;28;20073;-67
2022/07/14 07:18:25;;;;;;;4.00;2.03;;;30.70;81.20;;;;;;5026729;28;20526;-67
2022/07/14 07:20:52;;;;;;;11.00;2.38;;;30.80;80.80;;;;;;5010803;28;20117;-67
2022/07/14 07:23:20;;;;;;;3.92;1.80;;;30.70;79.80;;;;;;5010334;28;20112;-68
2022/07/14 07:25:47;;;;;;;2.85;1.60;;;30.80;79.80;;;;;;5011511;28;20455;-68
2022/07/14 07:28:15;;;;;;;3.83;1.80;;;30.90;78.40;;;;;;5010952;28;20046;-67
2022/07/14 07:30:42;;;;;;;5.60;1.90;;;30.90;77.30;;;;;;5011622;28;20482;-67
2022/07/14 07:33:10;;;;;;;4.15;2.03;;;30.90;75.50;;;;;;5026740;28;20049;-69
2022/07/14 07:35:38;;;;;;;5.28;1.88;;;30.90;74.40;;;;;;5011827;28;20507;-68
2022/07/14 07:38:06;;;;;;;3.90;1.90;;;30.90;73.80;;;;;;5026384;28;20392;-67
2022/07/14 07:40:34;;;;;;;3.60;1.77;;;31.00;74.00;;;;;;5010528;28;20123;-67
2022/07/14 07:43:02;;;;;;;13.20;2.50;;;31.10;73.70;;;;;;5011595;28;20132;-68
2022/07/14 07:45:29;;;;;;;7.82;2.22;;;31.20;73.40;;;;;;5011507;28;20072;-69
2022/07/14 07:47:57;;;;;;;6.95;2.38;;;31.00;73.40;;;;;;5010027;28;20053;-67
2022/07/14 07:50:25;;;;;;;3.78;2.20;;;31.10;74.10;;;;;;5025334;28;20045;-68
2022/07/14 07:52:52;;;;;;;5.93;2.03;;;31.20;74.20;;;;;;4994265;28;20088;-68
2022/07/14 07:55:20;;;;;;;4.40;1.80;;;31.30;72.60;;;;;;5010055;28;20570;-67
2022/07/14 07:57:52;;;;;;;3.00;1.60;;;31.30;71.50;;;;;;5027016;28;20053;-67
2022/07/14 08:00:20;;;;;;;6.00;1.75;;;31.40;71.40;;;;;;5026077;28;20057;-69
2022/07/14 08:02:50;;;;;;;5.43;1.75;;;31.50;71.00;;;;;;5010060;28;20045;-67
2022/07/14 08:05:19;;;;;;;2.35;1.48;;;31.70;70.40;;;;;;5026069;28;20109;-69
2022/07/14 08:08:07;;;;;;;3.85;1.40;;;31.70;69.00;;;;;;5010302;28;20046;-69
2022/07/14 08:10:37;;;;;;;2.83;1.70;;;31.70;67.90;;;;;;5010262;28;20057;-67
2022/07/14 08:13:05;;;;;;;5.38;2.00;;;31.90;66.50;;;;;;5011683;28;20050;-66
2022/07/14 08:15:33;;;;;;;4.63;1.35;;;31.80;64.50;;;;;;5009960;28;20052;-68
2022/07/14 08:18:02;;;;;;;3.55;1.20;;;31.80;65.30;;;;;;5009904;28;20066;-71
2022/07/14 08:20:30;;;;;;;6.00;1.67;;;31.70;64.60;;;;;;4992625;28;20269;-67
2022/07/14 08:22:58;;;;;;;2.58;1.40;;;31.70;63.90;;;;;;5009300;28;20056;-68
2022/07/14 08:25:26;;;;;;;3.38;1.60;;;31.80;64.10;;;;;;5009804;28;20046;-67
2022/07/14 08:27:54;;;;;;;4.38;1.95;;;31.80;65.40;;;;;;4993253;28;20145;-67
2022/07/14 08:30:22;;;;;;;6.25;1.75;;;31.60;67.60;;;;;;5009712;28;20532;-67
2022/07/14 08:32:51;;;;;;;3.13;1.40;;;31.60;69.90;;;;;;5009937;28;20060;-67
2022/07/14 08:35:23;;;;;;;3.03;1.60;;;31.50;71.00;;;;;;5025688;28;20400;-67
2022/07/14 08:37:51;;;;;;;2.50;1.85;;;31.40;71.90;;;;;;5026098;28;20060;-69
2022/07/14 08:40:22;;;;;;;3.35;1.80;;;31.50;73.10;;;;;;5036442;28;20075;-70
2022/07/14 08:42:53;;;;;;;5.47;1.98;;;31.40;73.10;;;;;;5029194;28;20837;-69
2022/07/14 08:45:24;;;;;;;6.10;1.77;;;31.30;74.40;;;;;;5029584;28;20038;-66
2022/07/14 08:47:52;;;;;;;5.18;2.33;;;31.50;74.70;;;;;;5029510;28;20046;-67
2022/07/14 08:50:22;;;;;;;3.17;1.70;;;31.40;74.40;;;;;;5012651;28;20057;-67
2022/07/14 08:52:50;;;;;;;2.90;1.40;;;31.30;74.20;;;;;;5029231;28;20057;-68
2022/07/14 08:55:19;;;;;;;4.47;1.58;;;31.40;74.20;;;;;;5029145;28;20053;-68
2022/07/14 08:57:48;;;;;;;4.55;2.25;;;31.50;73.70;;;;;;5012227;28;20081;-67
2022/07/14 09:00:18;;;;;;;6.38;3.58;;;31.60;73.60;;;;;;5012840;28;20083;-68
2022/07/14 09:02:51;;;;;;;8.13;3.47;;;31.50;73.50;;;;;;5012511;28;20157;-68
2022/07/14 09:05:41;;;;;;;6.07;2.15;;;31.40;73.30;;;;;;5029911;28;20053;-69
2022/07/14 09:08:09;;;;;;;6.60;2.13;;;31.50;73.80;;;;;;5012393;28;20491;-68
2022/07/14 09:10:39;;;;;;;3.95;1.70;;;31.50;72.20;;;;;;5028983;28;20096;-68
2022/07/14 09:13:22;;;;;;;3.28;1.70;;;31.30;71.40;;;;;;5012270;28;20068;-68
2022/07/14 09:16:13;;;;;;;4.55;1.55;;;31.30;71.50;;;;;;5012202;28;20152;-68
2022/07/14 09:18:41;;;;;;;4.20;1.30;;;31.40;72.00;;;;;;5029141;28;20061;-70
2022/07/14 09:21:22;;;;;;;3.22;1.55;;;31.50;71.50;;;;;;5045479;28;20041;-68
2022/07/14 09:23:55;;;;;;;4.20;1.50;;;31.50;70.70;;;;;;5012873;28;20057;-68
2022/07/14 09:26:23;;;;;;;3.55;1.40;;;31.00;71.30;;;;;;5007746;28;20054;-67
2022/07/14 09:28:51;;;;;;;5.35;1.40;;;31.00;71.20;;;;;;4992760;28;20060;-69
2022/07/14 09:31:25;;;;;;;18.40;4.15;;;31.00;71.40;;;;;;4992674;28;20140;-71
2022/07/14 09:33:59;;;;;;;31.17;6.88;;;31.10;72.00;;;;;;4993127;28;20115;-69
2022/07/14 09:36:31;;;;;;;102.80;21.20;;;31.10;70.20;;;;;;5009880;28;20384;-67
2022/07/14 09:39:09;;;;;;;28.50;4.72;;;31.20;69.00;;;;;;4992685;28;20447;-67
2022/07/14 09:41:55;;;;;;;6.30;1.80;;;31.20;70.40;;;;;;5012171;28;20056;-67
2022/07/14 09:44:23;;;;;;;5.07;1.92;;;31.30;71.20;;;;;;5012281;28;20125;-72
2022/07/14 09:46:57;;;;;;;3.25;1.77;;;31.40;73.70;;;;;;5012690;28;20045;-67
2022/07/14 09:49:28;;;;;;;2.90;1.40;;;31.20;73.90;;;;;;5013419;28;20108;-68
2022/07/14 09:52:03;;;;;;;5.10;1.70;;;31.10;75.00;;;;;;5012157;28;20123;-67
2022/07/14 09:54:37;;;;;;;6.57;1.70;;;31.10;76.00;;;;;;5012718;28;20042;-67
2022/07/14 09:57:18;;;;;;;5.53;1.75;;;31.10;75.60;;;;;;4980059;28;20050;-70
2022/07/14 09:59:57;;;;;;;4.05;1.52;;;31.20;74.30;;;;;;5011718;28;20049;-68
2022/07/14 10:02:28;;;;;;;4.05;1.63;;;31.30;73.40;;;;;;5012972;28;20070;-67
2022/07/14 10:05:01;;;;;;;3.33;1.50;;;31.20;75.60;;;;;;5013542;28;20539;-68
2022/07/14 10:07:35;;;;;;;6.40;1.92;;;31.20;75.50;;;;;;5011703;28;20165;-68
2022/07/14 10:10:15;;;;;;;2.70;1.55;;;31.30;75.50;;;;;;4995290;28;20144;-68
2022/07/14 10:12:44;;;;;;;7.97;1.33;;;31.40;74.90;;;;;;5022500;28;20045;-70
2022/07/14 10:15:13;;;;;;;6.57;1.67;;;31.50;74.90;;;;;;5047871;28;20503;-68
2022/07/14 10:17:42;;;;;;;3.47;1.40;;;31.60;74.60;;;;;;5014802;28;20042;-70
2022/07/14 10:20:13;;;;;;;4.35;1.60;;;31.60;73.00;;;;;;5030954;28;20056;-67
2022/07/14 10:22:41;;;;;;;3.15;1.45;;;31.60;73.00;;;;;;5031862;28;20058;-68
2022/07/14 10:25:09;;;;;;;6.28;1.83;;;31.60;73.80;;;;;;5047827;28;20053;-68
2022/07/14 10:27:46;;;;;;;3.28;1.70;;;31.70;72.60;;;;;;5031350;28;20136;-70
2022/07/14 10:30:15;;;;;;;3.08;1.30;;;31.60;70.50;;;;;;5032248;28;20057;-67
2022/07/14 10:33:02;;;;;;;3.78;1.38;;;31.60;69.40;;;;;;5047238;28;20593;-70
2022/07/14 10:35:45;;;;;;;5.50;1.35;;;31.60;68.40;;;;;;5030990;28;20069;-69
2022/07/14 10:38:32;;;;;;;3.83;1.20;;;31.60;68.10;;;;;;5030620;28;20041;-67
2022/07/14 10:41:18;;;;;;;3.65;1.30;;;31.60;67.90;;;;;;5047158;28;20064;-67
2022/07/14 10:44:06;;;;;;;4.13;1.50;;;31.60;67.40;;;;;;5014086;28;20179;-69
2022/07/14 10:46:45;;;;;;;3.55;1.40;;;31.70;67.00;;;;;;5030444;28;20053;-67
2022/07/14 10:49:16;;;;;;;4.32;1.98;;;31.60;67.10;;;;;;5032018;28;20052;-70
2022/07/14 10:51:48;;;;;;;4.40;1.58;;;31.70;67.50;;;;;;5014027;28;20165;-68
2022/07/14 10:54:23;;;;;;;3.53;1.73;;;31.60;67.20;;;;;;5030348;28;20085;-68
2022/07/14 10:57:19;;;;;;;4.38;1.50;;;31.50;66.30;;;;;;5044511;28;20041;-67
2022/07/14 10:59:47;;;;;;;1.90;1.30;;;31.30;66.40;;;;;;5013454;28;20045;-70
2022/07/14 11:02:15;;;;;;;2.40;1.60;;;31.30;66.00;;;;;;4978018;28;20046;-67
2022/07/14 11:04:59;;;;;;;4.72;1.52;;;31.30;65.90;;;;;;4994424;28;20447;-67
2022/07/14 11:07:38;;;;;;;3.63;1.40;;;31.20;65.80;;;;;;4993966;28;20448;-67
2022/07/14 11:10:18;;;;;;;3.28;1.80;;;31.10;66.30;;;;;;5011778;28;20068;-67
2022/07/14 11:13:04;;;;;;;4.03;1.67;;;31.10;66.40;;;;;;5027101;28;20053;-70
2022/07/14 11:16:02;;;;;;;2.50;1.40;;;31.00;66.10;;;;;;5027235;28;20504;-68
2022/07/14 11:18:41;;;;;;;2.30;1.40;;;30.90;67.50;;;;;;4994839;28;20058;-68
2022/07/14 11:21:13;;;;;;;3.22;1.40;;;30.80;66.80;;;;;;5021356;28;20072;-68
2022/07/14 11:23:48;;;;;;;9.68;1.80;;;30.90;67.00;;;;;;5035239;28;20066;-70
2022/07/14 11:26:40;;;;;;;4.20;1.77;;;30.70;65.30;;;;;;5031162;28;20062;-67
2022/07/14 11:29:14;;;;;;;1.83;1.20;;;30.60;65.60;;;;;;5024158;28;20140;-70
2022/07/14 11:32:27;;;;;;;2.10;1.30;;;30.40;65.80;;;;;;5017887;28;20050;-68
2022/07/14 11:38:00;;;;;;;5.82;1.45;;;30.20;63.80;;;;;;5013009;28;20053;-71
2022/07/14 11:41:05;;;;;;;3.30;1.50;;;30.10;63.90;;;;;;5027256;28;20095;-67
2022/07/14 11:43:36;;;;;;;4.10;1.50;;;30.00;63.90;;;;;;4992488;28;20463;-68
2022/07/14 11:46:09;;;;;;;1.67;1.20;;;30.20;64.50;;;;;;5027132;28;20045;-69
2022/07/14 11:48:44;;;;;;;3.72;1.65;;;30.20;63.20;;;;;;5030219;28;20107;-67
2022/07/14 11:51:32;;;;;;;7.25;6.55;;;30.20;63.30;;;;;;5025904;28;20802;-67
2022/07/14 11:54:01;;;;;;;13.75;12.02;;;30.10;64.20;;;;;;4995475;28;20122;-68
2022/07/14 11:56:30;;;;;;;3.35;2.17;;;30.00;66.10;;;;;;5010189;28;20046;-69
2022/07/14 11:59:05;;;;;;;5.15;3.35;;;30.00;66.70;;;;;;5025904;28;20053;-68
2022/07/14 12:01:34;;;;;;;;;;;30.00;65.80;;;;;;5011466;28;20118;-68
2022/07/14 12:04:07;;;;;;;4.68;2.25;;;30.00;66.00;;;;;;5044886;28;20402;-67
2022/07/14 12:06:38;;;;;;;3.05;1.55;;;30.00;64.90;;;;;;5012840;28;20112;-67
2022/07/14 12:09:06;;;;;;;3.63;1.30;;;30.00;64.90;;;;;;5030720;28;20491;-66
2022/07/14 12:11:55;;;;;;;2.90;1.88;;;30.00;64.50;;;;;;5016129;28;20060;-66
2022/07/14 12:14:24;;;;;;;3.33;1.42;;;30.10;64.20;;;;;;5028489;28;20068;-71
2022/07/14 12:16:52;;;;;;;3.58;1.67;;;30.10;65.00;;;;;;5030259;28;20060;-68
2022/07/14 12:19:40;;;;;;;4.38;2.33;;;30.20;65.80;;;;;;5028822;28;20054;-68
2022/07/14 12:22:08;;;;;;;13.65;7.53;;;30.10;64.50;;;;;;5028664;28;20566;-67
2022/07/14 12:24:36;;;;;;;5.70;3.78;;;29.90;64.10;;;;;;5029738;28;20037;-68
2022/07/14 12:27:10;;;;;;;47.10;34.60;;;29.80;64.50;;;;;;5012084;28;20053;-68
2022/07/14 12:29:50;;;;;;;22.02;16.92;;;29.80;64.90;;;;;;5045410;28;20041;-66
2022/07/14 12:32:24;;;;;;;9.27;6.40;;;29.80;64.90;;;;;;5028490;28;20049;-67
2022/07/14 12:34:52;;;;;;;6.60;4.55;;;29.80;64.00;;;;;;5028081;28;20041;-70
2022/07/14 12:37:20;;;;;;;6.93;4.63;;;29.80;65.70;;;;;;5028604;28;20047;-67
2022/07/14 12:39:48;;;;;;;11.25;5.95;;;29.90;66.50;;;;;;5045140;28;20042;-66
2022/07/14 12:42:17;;;;;;;5.55;3.70;;;29.90;67.00;;;;;;5012271;28;20151;-68
2022/07/14 12:45:07;;;;;;;4.28;3.10;;;30.10;66.00;;;;;;5028648;28;20042;-67
2022/07/14 12:47:52;;;;;;;4.57;1.88;;;30.10;65.50;;;;;;5015541;28;20142;-66
2022/07/14 12:50:21;;;;;;;10.13;5.03;;;30.10;66.90;;;;;;5008807;28;20053;-67
2022/07/14 12:52:57;;;;;;;25.42;18.65;;;30.20;65.40;;;;;;5009742;28;20053;-66
2022/07/14 12:55:44;;;;;;;27.65;19.83;;;30.20;64.80;;;;;;5009221;28;20038;-69
2022/07/14 12:58:14;;;;;;;8.30;5.97;;;30.10;63.90;;;;;;5025229;28;20144;-67
2022/07/14 13:00:44;;;;;;;9.52;6.43;;;30.00;62.50;;;;;;4992882;28;20081;-68
2022/07/14 13:03:19;;;;;;;9.85;5.03;;;30.10;64.40;;;;;;5010180;28;20042;-67
2022/07/14 13:05:50;;;;;;;;;;;30.10;64.80;;;;;;5010374;28;20125;-72
2022/07/14 13:08:39;;;;;;;12.43;9.82;;;30.00;65.10;;;;;;4993055;28;20446;-68
2022/07/14 13:11:12;;;;;;;5.00;2.53;;;30.10;65.90;;;;;;4997183;28;20049;-67
2022/07/14 13:13:48;;;;;;;3.38;1.77;;;30.10;65.80;;;;;;5014695;28;20045;-67
2022/07/14 13:16:30;;;;;;;4.38;2.15;;;30.00;64.90;;;;;;5028225;28;20103;-66
2022/07/14 13:19:11;;;;;;;16.73;10.55;;;29.90;64.70;;;;;;5014706;28;20065;-67